sensor_id;sensor_type;location;lat;lon;timestamp;temperature;humidity
22436;DHT22;11385;50.822;4.324;2023-03-03T00:01:14;4.80;99.90
22436;DHT22;11385;50.822;4.324;2023-03-03T00:03:43;4.80;99.90
22436;DHT22;11385;50.822;4.324;2023-03-03T00:06:12;4.80;99.90
22436;DHT22;11385;50.822;4.324;2023-03-03T00:08:40;4.80;99.90
22436;DHT22;11385;50.822;4.324;2023-03-03T00:11:07;4.80;99.90
22436;DHT22;11385;50.822;4.324;2023-03-03T00:13:43;4.80;99.90
22436;DHT22;11385;50.822;4.324;2023-03-03T00:16:14;4.70;99.90
22436;DHT22;11385;50.822;4.324;2023-03-03T00:18:44;4.60;99.90
22436;DHT22;11385;50.822;4.324;2023-03-03T00:21:18;4.60;99.90
22436;DHT22;11385;50.822;4.324;2023-03-03T00:23:43;4.70;99.90
22436;DHT22;11385;50.822;4.324;2023-03-03T00:26:17;4.60;99.90
22436;DHT22;11385;50.822;4.324;2023-03-03T00:28:47;4.50;99.90
22436;DHT22;11385;50.822;4.324;2023-03-03T00:31:17;4.50;99.90
22436;DHT22;11385;50.822;4.324;2023-03-03T00:33:49;4.40;99.90
22436;DHT22;11385;50.822;4.324;2023-03-03T00:36:25;4.50;99.90
22436;DHT22;11385;50.822;4.324;2023-03-03T00:38:56;4.40;99.90
22436;DHT22;11385;50.822;4.324;2023-03-03T00:41:26;4.40;99.90
22436;DHT22;11385;50.822;4.324;2023-03-03T00:43:53;4.30;99.90
22436;DHT22;11385;50.822;4.324;2023-03-03T00:46:22;4.20;99.90
22436;DHT22;11385;50.822;4.324;2023-03-03T00:48:50;4.20;99.90
22436;DHT22;11385;50.822;4.324;2023-03-03T00:51:28;4.20;99.90
22436;DHT22;11385;50.822;4.324;2023-03-03T00:53:56;4.30;99.90
22436;DHT22;11385;50.822;4.324;2023-03-03T00:56:23;4.30;99.90
22436;DHT22;11385;50.822;4.324;2023-03-03T00:58:50;4.30;99.90
22436;DHT22;11385;50.822;4.324;2023-03-03T01:01:17;4.20;99.90
22436;DHT22;11385;50.822;4.324;2023-03-03T01:03:44;4.30;99.90
22436;DHT22;11385;50.822;4.324;2023-03-03T01:06:11;4.20;99.90
22436;DHT22;11385;50.822;4.324;2023-03-03T01:08:37;4.20;99.90
22436;DHT22;11385;50.822;4.324;2023-03-03T01:11:11;4.10;99.90
22436;DHT22;11385;50.822;4.324;2023-03-03T01:13:39;4.20;99.90
22436;DHT22;11385;50.822;4.324;2023-03-03T01:16:07;4.20;99.90
22436;DHT22;11385;50.822;4.324;2023-03-03T01:18:35;4.20;99.90
22436;DHT22;11385;50.822;4.324;2023-03-03T01:21:03;4.20;99.90
22436;DHT22;11385;50.822;4.324;2023-03-03T01:23:30;4.10;99.90
22436;DHT22;11385;50.822;4.324;2023-03-03T01:25:57;4.10;99.90
22436;DHT22;11385;50.822;4.324;2023-03-03T01:28:24;3.90;99.90
22436;DHT22;11385;50.822;4.324;2023-03-03T01:30:51;4.00;99.90
22436;DHT22;11385;50.822;4.324;2023-03-03T01:33:18;4.10;99.90
22436;DHT22;11385;50.822;4.324;2023-03-03T01:35:45;4.10;99.90
22436;DHT22;11385;50.822;4.324;2023-03-03T01:38:14;3.90;99.90
22436;DHT22;11385;50.822;4.324;2023-03-03T01:40:42;3.90;99.90
22436;DHT22;11385;50.822;4.324;2023-03-03T01:43:13;3.90;99.90
22436;DHT22;11385;50.822;4.324;2023-03-03T01:48:41;3.80;99.90
22436;DHT22;11385;50.822;4.324;2023-03-03T01:54:00;3.90;99.90
22436;DHT22;11385;50.822;4.324;2023-03-03T01:56:28;3.80;99.90
22436;DHT22;11385;50.822;4.324;2023-03-03T01:59:02;3.70;99.90
22436;DHT22;11385;50.822;4.324;2023-03-03T02:01:30;3.70;99.90
22436;DHT22;11385;50.822;4.324;2023-03-03T02:03:58;3.60;99.90
22436;DHT22;11385;50.822;4.324;2023-03-03T02:06:29;3.60;99.90
22436;DHT22;11385;50.822;4.324;2023-03-03T02:09:05;3.50;99.90
22436;DHT22;11385;50.822;4.324;2023-03-03T02:11:34;3.60;99.90
22436;DHT22;11385;50.822;4.324;2023-03-03T02:14:02;3.50;99.90
22436;DHT22;11385;50.822;4.324;2023-03-03T02:16:29;3.50;99.90
22436;DHT22;11385;50.822;4.324;2023-03-03T02:18:56;3.60;99.90
22436;DHT22;11385;50.822;4.324;2023-03-03T02:21:24;3.70;99.90
22436;DHT22;11385;50.822;4.324;2023-03-03T02:24:04;3.60;99.90
22436;DHT22;11385;50.822;4.324;2023-03-03T02:26:35;3.60;99.90
22436;DHT22;11385;50.822;4.324;2023-03-03T02:29:03;3.50;99.90
22436;DHT22;11385;50.822;4.324;2023-03-03T02:31:30;3.60;99.90
22436;DHT22;11385;50.822;4.324;2023-03-03T02:33:58;3.70;99.90
22436;DHT22;11385;50.822;4.324;2023-03-03T02:36:29;3.60;99.90
22436;DHT22;11385;50.822;4.324;2023-03-03T02:39:03;3.60;99.90
22436;DHT22;11385;50.822;4.324;2023-03-03T02:41:35;3.60;99.90
22436;DHT22;11385;50.822;4.324;2023-03-03T02:44:09;3.80;99.90
22436;DHT22;11385;50.822;4.324;2023-03-03T02:46:40;3.70;99.90
22436;DHT22;11385;50.822;4.324;2023-03-03T02:49:09;3.70;99.90
22436;DHT22;11385;50.822;4.324;2023-03-03T02:51:36;3.60;99.90
22436;DHT22;11385;50.822;4.324;2023-03-03T02:54:04;3.60;99.90
22436;DHT22;11385;50.822;4.324;2023-03-03T02:56:31;3.70;99.90
22436;DHT22;11385;50.822;4.324;2023-03-03T02:58:58;3.60;99.90
22436;DHT22;11385;50.822;4.324;2023-03-03T03:01:25;3.50;99.90
22436;DHT22;11385;50.822;4.324;2023-03-03T03:03:52;3.40;99.90
22436;DHT22;11385;50.822;4.324;2023-03-03T03:06:19;3.50;99.90
22436;DHT22;11385;50.822;4.324;2023-03-03T03:08:45;3.60;99.90
22436;DHT22;11385;50.822;4.324;2023-03-03T03:11:13;3.60;99.90
22436;DHT22;11385;50.822;4.324;2023-03-03T03:13:40;3.70;99.90
22436;DHT22;11385;50.822;4.324;2023-03-03T03:16:06;3.60;99.90
22436;DHT22;11385;50.822;4.324;2023-03-03T03:18:34;3.60;99.90
22436;DHT22;11385;50.822;4.324;2023-03-03T03:21:08;3.50;99.90
22436;DHT22;11385;50.822;4.324;2023-03-03T03:23:35;3.50;99.90
22436;DHT22;11385;50.822;4.324;2023-03-03T03:26:02;3.40;99.90
22436;DHT22;11385;50.822;4.324;2023-03-03T03:28:30;3.50;99.90
22436;DHT22;11385;50.822;4.324;2023-03-03T03:30:57;3.40;99.90
22436;DHT22;11385;50.822;4.324;2023-03-03T03:33:24;3.50;99.90
22436;DHT22;11385;50.822;4.324;2023-03-03T03:35:53;3.70;99.90
22436;DHT22;11385;50.822;4.324;2023-03-03T03:38:21;3.60;99.90
22436;DHT22;11385;50.822;4.324;2023-03-03T03:40:49;3.60;99.90
22436;DHT22;11385;50.822;4.324;2023-03-03T03:43:15;3.50;99.90
22436;DHT22;11385;50.822;4.324;2023-03-03T03:45:42;3.30;99.90
22436;DHT22;11385;50.822;4.324;2023-03-03T03:48:09;3.40;99.90
22436;DHT22;11385;50.822;4.324;2023-03-03T03:50:37;3.40;99.90
22436;DHT22;11385;50.822;4.324;2023-03-03T03:53:04;3.40;99.90
22436;DHT22;11385;50.822;4.324;2023-03-03T03:55:31;3.40;99.90
22436;DHT22;11385;50.822;4.324;2023-03-03T03:57:58;3.50;99.90
22436;DHT22;11385;50.822;4.324;2023-03-03T04:00:25;3.50;99.90
22436;DHT22;11385;50.822;4.324;2023-03-03T04:02:52;3.30;99.90
22436;DHT22;11385;50.822;4.324;2023-03-03T04:05:18;3.30;99.90
22436;DHT22;11385;50.822;4.324;2023-03-03T04:07:45;3.40;99.90
22436;DHT22;11385;50.822;4.324;2023-03-03T04:10:12;3.40;99.90
22436;DHT22;11385;50.822;4.324;2023-03-03T04:12:39;3.40;99.90
22436;DHT22;11385;50.822;4.324;2023-03-03T04:15:09;3.80;99.90
22436;DHT22;11385;50.822;4.324;2023-03-03T04:17:36;3.70;99.90
22436;DHT22;11385;50.822;4.324;2023-03-03T04:20:04;3.30;99.90
22436;DHT22;11385;50.822;4.324;2023-03-03T04:22:31;3.40;99.90
22436;DHT22;11385;50.822;4.324;2023-03-03T04:24:59;3.30;99.90
22436;DHT22;11385;50.822;4.324;2023-03-03T04:27:28;3.50;99.90
22436;DHT22;11385;50.822;4.324;2023-03-03T04:29:55;3.40;99.90
22436;DHT22;11385;50.822;4.324;2023-03-03T04:32:21;3.30;99.90
22436;DHT22;11385;50.822;4.324;2023-03-03T04:34:48;3.30;99.90
22436;DHT22;11385;50.822;4.324;2023-03-03T04:37:15;3.60;99.90
22436;DHT22;11385;50.822;4.324;2023-03-03T04:39:41;3.40;99.90
22436;DHT22;11385;50.822;4.324;2023-03-03T04:42:08;3.40;99.90
22436;DHT22;11385;50.822;4.324;2023-03-03T04:44:35;3.50;99.90
22436;DHT22;11385;50.822;4.324;2023-03-03T04:47:03;3.70;99.90
22436;DHT22;11385;50.822;4.324;2023-03-03T04:49:30;3.70;99.90
22436;DHT22;11385;50.822;4.324;2023-03-03T04:51:57;3.70;99.90
22436;DHT22;11385;50.822;4.324;2023-03-03T04:54:23;3.70;99.90
22436;DHT22;11385;50.822;4.324;2023-03-03T04:56:50;3.50;99.90
22436;DHT22;11385;50.822;4.324;2023-03-03T04:59:17;3.40;99.90
22436;DHT22;11385;50.822;4.324;2023-03-03T05:01:44;3.30;99.90
22436;DHT22;11385;50.822;4.324;2023-03-03T05:04:11;3.30;99.90
22436;DHT22;11385;50.822;4.324;2023-03-03T05:06:38;3.30;99.90
22436;DHT22;11385;50.822;4.324;2023-03-03T05:09:05;3.40;99.90
22436;DHT22;11385;50.822;4.324;2023-03-03T05:11:32;3.30;99.90
22436;DHT22;11385;50.822;4.324;2023-03-03T05:14:00;3.20;99.90
22436;DHT22;11385;50.822;4.324;2023-03-03T05:16:28;3.20;99.90
22436;DHT22;11385;50.822;4.324;2023-03-03T05:18:55;3.30;99.90
22436;DHT22;11385;50.822;4.324;2023-03-03T05:21:21;3.10;99.90
22436;DHT22;11385;50.822;4.324;2023-03-03T05:23:48;3.10;99.90
22436;DHT22;11385;50.822;4.324;2023-03-03T05:26:15;3.00;99.90
22436;DHT22;11385;50.822;4.324;2023-03-03T05:28:41;3.10;99.90
22436;DHT22;11385;50.822;4.324;2023-03-03T05:31:08;3.10;99.90
22436;DHT22;11385;50.822;4.324;2023-03-03T05:33:35;3.10;99.90
22436;DHT22;11385;50.822;4.324;2023-03-03T05:36:02;3.20;99.90
22436;DHT22;11385;50.822;4.324;2023-03-03T05:38:28;3.10;99.90
22436;DHT22;11385;50.822;4.324;2023-03-03T05:40:55;3.10;99.90
22436;DHT22;11385;50.822;4.324;2023-03-03T05:43:22;2.90;99.90
22436;DHT22;11385;50.822;4.324;2023-03-03T05:45:54;2.90;99.90
22436;DHT22;11385;50.822;4.324;2023-03-03T05:48:21;2.80;99.90
22436;DHT22;11385;50.822;4.324;2023-03-03T05:50:48;2.60;99.90
22436;DHT22;11385;50.822;4.324;2023-03-03T05:53:14;2.60;99.90
22436;DHT22;11385;50.822;4.324;2023-03-03T05:55:41;2.50;99.90
22436;DHT22;11385;50.822;4.324;2023-03-03T05:58:08;2.60;99.90
22436;DHT22;11385;50.822;4.324;2023-03-03T06:00:34;2.70;99.90
22436;DHT22;11385;50.822;4.324;2023-03-03T06:03:01;2.80;99.90
22436;DHT22;11385;50.822;4.324;2023-03-03T06:05:28;2.70;99.90
22436;DHT22;11385;50.822;4.324;2023-03-03T06:07:55;2.60;99.90
22436;DHT22;11385;50.822;4.324;2023-03-03T06:10:22;2.50;99.90
22436;DHT22;11385;50.822;4.324;2023-03-03T06:12:49;2.50;99.90
22436;DHT22;11385;50.822;4.324;2023-03-03T06:15:19;2.50;99.90
22436;DHT22;11385;50.822;4.324;2023-03-03T06:17:45;2.30;99.90
22436;DHT22;11385;50.822;4.324;2023-03-03T06:20:12;2.40;99.90
22436;DHT22;11385;50.822;4.324;2023-03-03T06:22:38;2.30;99.90
22436;DHT22;11385;50.822;4.324;2023-03-03T06:25:05;2.40;99.90
22436;DHT22;11385;50.822;4.324;2023-03-03T06:27:32;2.50;99.90
22436;DHT22;11385;50.822;4.324;2023-03-03T06:29:59;2.50;99.90
22436;DHT22;11385;50.822;4.324;2023-03-03T06:32:25;2.60;99.90
22436;DHT22;11385;50.822;4.324;2023-03-03T06:34:52;2.70;99.90
22436;DHT22;11385;50.822;4.324;2023-03-03T06:37:19;2.70;99.90
22436;DHT22;11385;50.822;4.324;2023-03-03T06:39:45;2.90;99.90
22436;DHT22;11385;50.822;4.324;2023-03-03T06:42:12;2.90;99.90
22436;DHT22;11385;50.822;4.324;2023-03-03T06:44:38;2.90;99.90
22436;DHT22;11385;50.822;4.324;2023-03-03T06:47:05;2.60;99.90
22436;DHT22;11385;50.822;4.324;2023-03-03T06:49:32;2.60;99.90
22436;DHT22;11385;50.822;4.324;2023-03-03T06:52:01;2.60;99.90
22436;DHT22;11385;50.822;4.324;2023-03-03T06:54:29;2.50;99.90
22436;DHT22;11385;50.822;4.324;2023-03-03T06:56:59;2.70;99.90
22436;DHT22;11385;50.822;4.324;2023-03-03T06:59:26;2.80;99.90
22436;DHT22;11385;50.822;4.324;2023-03-03T07:01:53;2.80;99.90
22436;DHT22;11385;50.822;4.324;2023-03-03T07:04:38;2.60;99.90
22436;DHT22;11385;50.822;4.324;2023-03-03T07:07:20;2.70;99.90
22436;DHT22;11385;50.822;4.324;2023-03-03T07:09:50;2.60;99.90
22436;DHT22;11385;50.822;4.324;2023-03-03T07:12:22;2.50;99.90
22436;DHT22;11385;50.822;4.324;2023-03-03T07:14:52;2.60;99.90
22436;DHT22;11385;50.822;4.324;2023-03-03T07:17:23;2.70;99.90
22436;DHT22;11385;50.822;4.324;2023-03-03T07:19:50;2.60;99.90
22436;DHT22;11385;50.822;4.324;2023-03-03T07:22:20;2.60;99.90
22436;DHT22;11385;50.822;4.324;2023-03-03T07:24:50;2.70;99.90
22436;DHT22;11385;50.822;4.324;2023-03-03T07:27:25;2.60;99.90
22436;DHT22;11385;50.822;4.324;2023-03-03T07:29:54;2.80;99.90
22436;DHT22;11385;50.822;4.324;2023-03-03T07:32:39;3.00;99.90
22436;DHT22;11385;50.822;4.324;2023-03-03T07:37:42;2.90;99.90
22436;DHT22;11385;50.822;4.324;2023-03-03T07:40:37;2.80;99.90
22436;DHT22;11385;50.822;4.324;2023-03-03T07:43:21;2.80;99.90
22436;DHT22;11385;50.822;4.324;2023-03-03T07:45:44;2.80;99.90
22436;DHT22;11385;50.822;4.324;2023-03-03T07:48:24;2.80;99.90
22436;DHT22;11385;50.822;4.324;2023-03-03T07:50:52;2.80;99.90
22436;DHT22;11385;50.822;4.324;2023-03-03T07:53:25;2.70;99.90
22436;DHT22;11385;50.822;4.324;2023-03-03T07:55:53;2.70;99.90
22436;DHT22;11385;50.822;4.324;2023-03-03T07:58:35;2.70;99.90
22436;DHT22;11385;50.822;4.324;2023-03-03T08:03:37;2.80;99.90
22436;DHT22;11385;50.822;4.324;2023-03-03T08:08:51;3.00;99.90
22436;DHT22;11385;50.822;4.324;2023-03-03T08:11:18;3.00;99.90
22436;DHT22;11385;50.822;4.324;2023-03-03T08:13:45;3.10;99.90
22436;DHT22;11385;50.822;4.324;2023-03-03T08:16:34;3.20;99.90
22436;DHT22;11385;50.822;4.324;2023-03-03T08:19:01;3.40;99.90
22436;DHT22;11385;50.822;4.324;2023-03-03T08:21:28;3.50;99.90
22436;DHT22;11385;50.822;4.324;2023-03-03T08:23:57;3.40;99.90
22436;DHT22;11385;50.822;4.324;2023-03-03T08:26:24;3.30;99.90
22436;DHT22;11385;50.822;4.324;2023-03-03T08:28:52;3.30;99.90
22436;DHT22;11385;50.822;4.324;2023-03-03T08:31:19;3.30;99.90
22436;DHT22;11385;50.822;4.324;2023-03-03T08:33:46;3.20;99.90
22436;DHT22;11385;50.822;4.324;2023-03-03T08:36:13;3.20;99.90
22436;DHT22;11385;50.822;4.324;2023-03-03T08:38:40;3.30;99.90
22436;DHT22;11385;50.822;4.324;2023-03-03T08:41:07;3.20;99.90
22436;DHT22;11385;50.822;4.324;2023-03-03T08:43:34;3.10;99.90
22436;DHT22;11385;50.822;4.324;2023-03-03T08:46:02;3.10;99.90
22436;DHT22;11385;50.822;4.324;2023-03-03T08:48:30;3.10;99.90
22436;DHT22;11385;50.822;4.324;2023-03-03T08:50:57;3.20;99.90
22436;DHT22;11385;50.822;4.324;2023-03-03T08:53:24;3.30;99.90
22436;DHT22;11385;50.822;4.324;2023-03-03T08:55:51;3.30;99.90
22436;DHT22;11385;50.822;4.324;2023-03-03T08:58:19;3.30;99.90
22436;DHT22;11385;50.822;4.324;2023-03-03T09:00:46;3.20;99.90
22436;DHT22;11385;50.822;4.324;2023-03-03T09:03:13;3.20;99.90
22436;DHT22;11385;50.822;4.324;2023-03-03T09:05:40;3.20;99.90
22436;DHT22;11385;50.822;4.324;2023-03-03T09:08:07;3.30;99.90
22436;DHT22;11385;50.822;4.324;2023-03-03T09:10:35;3.20;99.90
22436;DHT22;11385;50.822;4.324;2023-03-03T09:13:09;3.30;99.90
22436;DHT22;11385;50.822;4.324;2023-03-03T09:15:37;3.40;99.90
22436;DHT22;11385;50.822;4.324;2023-03-03T09:18:18;3.70;99.90
22436;DHT22;11385;50.822;4.324;2023-03-03T09:20:48;3.80;99.90
22436;DHT22;11385;50.822;4.324;2023-03-03T09:25:54;3.40;99.90
22436;DHT22;11385;50.822;4.324;2023-03-03T09:28:25;3.20;99.90
22436;DHT22;11385;50.822;4.324;2023-03-03T09:30:53;3.40;99.90
22436;DHT22;11385;50.822;4.324;2023-03-03T09:33:26;3.50;99.90
22436;DHT22;11385;50.822;4.324;2023-03-03T09:36:00;3.40;99.90
22436;DHT22;11385;50.822;4.324;2023-03-03T09:38:31;3.60;99.90
22436;DHT22;11385;50.822;4.324;2023-03-03T09:41:19;3.50;99.90
22436;DHT22;11385;50.822;4.324;2023-03-03T09:43:57;3.30;99.90
22436;DHT22;11385;50.822;4.324;2023-03-03T09:46:36;3.40;99.90
22436;DHT22;11385;50.822;4.324;2023-03-03T09:51:51;3.70;99.90
22436;DHT22;11385;50.822;4.324;2023-03-03T09:57:29;3.60;99.90
22436;DHT22;11385;50.822;4.324;2023-03-03T10:00:18;3.60;99.90
22436;DHT22;11385;50.822;4.324;2023-03-03T10:02:48;3.70;99.90
22436;DHT22;11385;50.822;4.324;2023-03-03T10:08:21;3.70;99.90
22436;DHT22;11385;50.822;4.324;2023-03-03T10:11:00;3.60;99.90
22436;DHT22;11385;50.822;4.324;2023-03-03T10:13:35;3.60;99.90
22436;DHT22;11385;50.822;4.324;2023-03-03T10:16:43;3.80;99.90
22436;DHT22;11385;50.822;4.324;2023-03-03T10:18:57;3.90;99.90
22436;DHT22;11385;50.822;4.324;2023-03-03T10:21:39;4.10;99.90
22436;DHT22;11385;50.822;4.324;2023-03-03T10:24:26;4.00;99.90
22436;DHT22;11385;50.822;4.324;2023-03-03T10:27:00;4.10;99.90
22436;DHT22;11385;50.822;4.324;2023-03-03T10:29:35;4.20;99.90
22436;DHT22;11385;50.822;4.324;2023-03-03T10:32:14;4.30;99.90
22436;DHT22;11385;50.822;4.324;2023-03-03T10:37:39;4.50;99.90
22436;DHT22;11385;50.822;4.324;2023-03-03T10:40:12;4.60;99.90
22436;DHT22;11385;50.822;4.324;2023-03-03T10:43:04;4.70;99.90
22436;DHT22;11385;50.822;4.324;2023-03-03T10:48:40;4.60;99.90
22436;DHT22;11385;50.822;4.324;2023-03-03T10:51:36;4.50;99.90
22436;DHT22;11385;50.822;4.324;2023-03-03T10:54:27;4.50;99.90
22436;DHT22;11385;50.822;4.324;2023-03-03T10:59:55;4.90;99.90
22436;DHT22;11385;50.822;4.324;2023-03-03T11:02:27;5.10;99.90
22436;DHT22;11385;50.822;4.324;2023-03-03T11:05:13;5.30;99.90
22436;DHT22;11385;50.822;4.324;2023-03-03T11:07:43;5.30;99.90
22436;DHT22;11385;50.822;4.324;2023-03-03T11:10:28;5.50;99.90
22436;DHT22;11385;50.822;4.324;2023-03-03T11:13:16;5.60;99.90
22436;DHT22;11385;50.822;4.324;2023-03-03T11:15:47;5.60;99.90
22436;DHT22;11385;50.822;4.324;2023-03-03T11:18:22;5.60;99.90
22436;DHT22;11385;50.822;4.324;2023-03-03T11:21:19;5.70;99.90
22436;DHT22;11385;50.822;4.324;2023-03-03T11:23:53;5.60;99.90
22436;DHT22;11385;50.822;4.324;2023-03-03T11:26:27;5.90;99.90
22436;DHT22;11385;50.822;4.324;2023-03-03T11:29:07;6.10;99.90
22436;DHT22;11385;50.822;4.324;2023-03-03T11:31:37;5.90;99.90
22436;DHT22;11385;50.822;4.324;2023-03-03T11:34:30;6.10;99.90
22436;DHT22;11385;50.822;4.324;2023-03-03T11:39:48;6.10;99.90
22436;DHT22;11385;50.822;4.324;2023-03-03T11:42:24;6.00;99.90
22436;DHT22;11385;50.822;4.324;2023-03-03T11:44:59;6.10;99.90
22436;DHT22;11385;50.822;4.324;2023-03-03T11:47:36;6.20;99.90
22436;DHT22;11385;50.822;4.324;2023-03-03T11:50:07;6.20;99.90
22436;DHT22;11385;50.822;4.324;2023-03-03T11:55:26;6.30;99.90
22436;DHT22;11385;50.822;4.324;2023-03-03T11:58:05;6.30;99.90
22436;DHT22;11385;50.822;4.324;2023-03-03T12:00:40;6.20;99.90
22436;DHT22;11385;50.822;4.324;2023-03-03T12:03:18;6.40;99.90
22436;DHT22;11385;50.822;4.324;2023-03-03T12:08:33;6.50;99.90
22436;DHT22;11385;50.822;4.324;2023-03-03T12:13:43;7.10;99.90
22436;DHT22;11385;50.822;4.324;2023-03-03T12:16:16;7.30;99.90
22436;DHT22;11385;50.822;4.324;2023-03-03T12:18:57;7.30;99.90
22436;DHT22;11385;50.822;4.324;2023-03-03T12:21:40;7.10;99.90
22436;DHT22;11385;50.822;4.324;2023-03-03T12:24:19;7.50;99.90
22436;DHT22;11385;50.822;4.324;2023-03-03T12:26:53;7.60;99.90
22436;DHT22;11385;50.822;4.324;2023-03-03T12:29:33;7.30;99.90
22436;DHT22;11385;50.822;4.324;2023-03-03T12:32:20;7.50;99.90
22436;DHT22;11385;50.822;4.324;2023-03-03T12:34:56;7.60;99.90
22436;DHT22;11385;50.822;4.324;2023-03-03T12:37:46;7.50;99.90
22436;DHT22;11385;50.822;4.324;2023-03-03T12:40:18;7.70;99.90
22436;DHT22;11385;50.822;4.324;2023-03-03T12:42:55;7.80;99.90
22436;DHT22;11385;50.822;4.324;2023-03-03T12:45:50;8.00;99.90
22436;DHT22;11385;50.822;4.324;2023-03-03T12:48:18;8.30;99.90
22436;DHT22;11385;50.822;4.324;2023-03-03T12:51:09;8.10;99.90
22436;DHT22;11385;50.822;4.324;2023-03-03T12:54:48;8.40;99.90
22436;DHT22;11385;50.822;4.324;2023-03-03T12:56:31;8.40;99.90
22436;DHT22;11385;50.822;4.324;2023-03-03T13:02:28;7.80;99.90
22436;DHT22;11385;50.822;4.324;2023-03-03T13:05:02;7.40;99.90
22436;DHT22;11385;50.822;4.324;2023-03-03T13:08:00;7.30;99.90
22436;DHT22;11385;50.822;4.324;2023-03-03T13:10:34;7.30;99.90
22436;DHT22;11385;50.822;4.324;2023-03-03T13:13:10;7.30;99.90
22436;DHT22;11385;50.822;4.324;2023-03-03T13:15:43;7.30;99.90
22436;DHT22;11385;50.822;4.324;2023-03-03T13:18:18;7.40;99.90
22436;DHT22;11385;50.822;4.324;2023-03-03T13:20:50;7.50;99.90
22436;DHT22;11385;50.822;4.324;2023-03-03T13:23:50;7.50;99.90
22436;DHT22;11385;50.822;4.324;2023-03-03T13:26:28;7.50;99.90
22436;DHT22;11385;50.822;4.324;2023-03-03T13:28:59;8.00;99.90
22436;DHT22;11385;50.822;4.324;2023-03-03T13:31:32;8.10;99.90
22436;DHT22;11385;50.822;4.324;2023-03-03T13:34:01;8.20;99.90
22436;DHT22;11385;50.822;4.324;2023-03-03T13:36:49;8.30;99.90
22436;DHT22;11385;50.822;4.324;2023-03-03T13:39:22;8.50;99.90
22436;DHT22;11385;50.822;4.324;2023-03-03T13:42:00;8.50;99.90
22436;DHT22;11385;50.822;4.324;2023-03-03T13:44:35;8.30;99.90
22436;DHT22;11385;50.822;4.324;2023-03-03T13:47:12;8.20;99.90
22436;DHT22;11385;50.822;4.324;2023-03-03T13:49:59;8.30;99.90
22436;DHT22;11385;50.822;4.324;2023-03-03T13:52:31;8.20;99.90
22436;DHT22;11385;50.822;4.324;2023-03-03T13:55:20;8.20;99.90
22436;DHT22;11385;50.822;4.324;2023-03-03T13:58:00;8.20;99.90
22436;DHT22;11385;50.822;4.324;2023-03-03T14:00:43;8.00;99.90
22436;DHT22;11385;50.822;4.324;2023-03-03T14:06:04;8.20;99.90
22436;DHT22;11385;50.822;4.324;2023-03-03T14:08:54;8.00;99.90
22436;DHT22;11385;50.822;4.324;2023-03-03T14:11:31;8.00;99.90
22436;DHT22;11385;50.822;4.324;2023-03-03T14:14:12;7.90;99.90
22436;DHT22;11385;50.822;4.324;2023-03-03T14:16:48;8.10;99.90
22436;DHT22;11385;50.822;4.324;2023-03-03T14:19:35;8.20;99.90
22436;DHT22;11385;50.822;4.324;2023-03-03T14:22:25;8.30;99.90
22436;DHT22;11385;50.822;4.324;2023-03-03T14:25:13;8.50;99.90
22436;DHT22;11385;50.822;4.324;2023-03-03T14:27:57;8.40;99.90
22436;DHT22;11385;50.822;4.324;2023-03-03T14:30:27;8.30;99.90
22436;DHT22;11385;50.822;4.324;2023-03-03T14:35:59;8.50;99.90
22436;DHT22;11385;50.822;4.324;2023-03-03T14:38:22;8.50;99.90
22436;DHT22;11385;50.822;4.324;2023-03-03T14:41:02;8.50;99.90
22436;DHT22;11385;50.822;4.324;2023-03-03T14:43:32;8.50;99.90
22436;DHT22;11385;50.822;4.324;2023-03-03T14:45:54;8.60;99.90
22436;DHT22;11385;50.822;4.324;2023-03-03T14:48:24;8.60;99.90
22436;DHT22;11385;50.822;4.324;2023-03-03T14:50:59;8.60;99.90
22436;DHT22;11385;50.822;4.324;2023-03-03T14:53:33;8.60;99.90
22436;DHT22;11385;50.822;4.324;2023-03-03T14:56:14;8.70;99.90
22436;DHT22;11385;50.822;4.324;2023-03-03T14:58:41;8.70;99.90
22436;DHT22;11385;50.822;4.324;2023-03-03T15:01:14;8.50;99.90
22436;DHT22;11385;50.822;4.324;2023-03-03T15:03:46;8.60;99.90
22436;DHT22;11385;50.822;4.324;2023-03-03T15:08:48;8.70;99.90
22436;DHT22;11385;50.822;4.324;2023-03-03T15:11:26;8.70;99.90
22436;DHT22;11385;50.822;4.324;2023-03-03T15:13:52;8.80;99.90
22436;DHT22;11385;50.822;4.324;2023-03-03T15:16:23;8.80;99.90
22436;DHT22;11385;50.822;4.324;2023-03-03T15:19:33;9.00;99.90
22436;DHT22;11385;50.822;4.324;2023-03-03T15:22:13;9.10;99.90
22436;DHT22;11385;50.822;4.324;2023-03-03T15:25:02;9.10;99.90
22436;DHT22;11385;50.822;4.324;2023-03-03T15:27:39;8.90;99.90
22436;DHT22;11385;50.822;4.324;2023-03-03T15:30:14;9.00;99.90
22436;DHT22;11385;50.822;4.324;2023-03-03T15:32:48;8.90;99.90
22436;DHT22;11385;50.822;4.324;2023-03-03T15:35:25;9.00;99.90
22436;DHT22;11385;50.822;4.324;2023-03-03T15:37:58;9.00;99.90
22436;DHT22;11385;50.822;4.324;2023-03-03T15:43:31;8.90;99.90
22436;DHT22;11385;50.822;4.324;2023-03-03T15:46:05;8.80;99.90
22436;DHT22;11385;50.822;4.324;2023-03-03T15:49:47;8.70;99.90
22436;DHT22;11385;50.822;4.324;2023-03-03T15:51:48;8.40;99.90
22436;DHT22;11385;50.822;4.324;2023-03-03T15:54:25;8.40;99.90
22436;DHT22;11385;50.822;4.324;2023-03-03T15:56:52;8.50;99.90
22436;DHT22;11385;50.822;4.324;2023-03-03T15:59:24;8.70;99.90
22436;DHT22;11385;50.822;4.324;2023-03-03T16:04:52;8.80;99.90
22436;DHT22;11385;50.822;4.324;2023-03-03T16:07:28;8.60;99.90
22436;DHT22;11385;50.822;4.324;2023-03-03T16:12:51;8.80;99.90
22436;DHT22;11385;50.822;4.324;2023-03-03T16:15:18;8.90;99.90
22436;DHT22;11385;50.822;4.324;2023-03-03T16:18:06;8.90;99.90
22436;DHT22;11385;50.822;4.324;2023-03-03T16:23:22;9.20;99.90
22436;DHT22;11385;50.822;4.324;2023-03-03T16:28:37;9.10;99.90
22436;DHT22;11385;50.822;4.324;2023-03-03T16:31:23;9.10;99.90
22436;DHT22;11385;50.822;4.324;2023-03-03T16:34:12;9.00;99.90
22436;DHT22;11385;50.822;4.324;2023-03-03T16:37:02;8.90;99.90
22436;DHT22;11385;50.822;4.324;2023-03-03T16:39:43;8.80;99.90
22436;DHT22;11385;50.822;4.324;2023-03-03T16:42:16;8.90;99.90
22436;DHT22;11385;50.822;4.324;2023-03-03T16:45:03;8.90;99.90
22436;DHT22;11385;50.822;4.324;2023-03-03T16:47:40;8.80;99.90
22436;DHT22;11385;50.822;4.324;2023-03-03T16:50:15;8.60;99.90
22436;DHT22;11385;50.822;4.324;2023-03-03T16:52:52;8.80;99.90
22436;DHT22;11385;50.822;4.324;2023-03-03T16:55:20;8.90;99.90
22436;DHT22;11385;50.822;4.324;2023-03-03T16:58:19;8.80;99.90
22436;DHT22;11385;50.822;4.324;2023-03-03T17:04:00;8.80;99.90
22436;DHT22;11385;50.822;4.324;2023-03-03T17:09:10;8.50;99.90
22436;DHT22;11385;50.822;4.324;2023-03-03T17:12:01;8.50;99.90
22436;DHT22;11385;50.822;4.324;2023-03-03T17:14:38;8.40;99.90
22436;DHT22;11385;50.822;4.324;2023-03-03T17:20:22;8.20;99.90
22436;DHT22;11385;50.822;4.324;2023-03-03T17:26:21;7.60;99.90
22436;DHT22;11385;50.822;4.324;2023-03-03T17:28:40;7.60;99.90
22436;DHT22;11385;50.822;4.324;2023-03-03T17:31:29;7.70;99.90
22436;DHT22;11385;50.822;4.324;2023-03-03T17:34:06;7.60;99.90
22436;DHT22;11385;50.822;4.324;2023-03-03T17:36:41;7.70;99.90
22436;DHT22;11385;50.822;4.324;2023-03-03T17:39:25;7.60;99.90
22436;DHT22;11385;50.822;4.324;2023-03-03T17:44:36;7.70;99.90